Time;durP1;ratioP1;P1;durP2;ratioP2;P2;SDS_P1;SDS_P2;PMS_P1;PMS_P2;Temp;Humidity;BMP_temperature;BMP_pressure;BME280_temperature;BME280_humidity;BME280_pressure;Samples;Min_cycle;Max_cycle;Signal;HPM_P1;HPM_P2
2024/03/18 00:01:41;;;;;;;3.63;1.30;;;;;;;;;;10217966;28;20044;-76
2024/03/18 00:06:46;;;;;;;5.00;1.30;;;;;;;;;;10202648;28;20390;-78
2024/03/18 00:11:48;;;;;;;2.50;1.13;;;;;;;;;;10205125;28;20074;-78
2024/03/18 00:16:49;;;;;;;1.73;1.00;;;;;;;;;;10203780;28;20151;-78
2024/03/18 00:21:53;;;;;;;;;;;;;;;;;;10201818;28;20054;-76
2024/03/18 00:26:56;;;;;;;2.33;1.02;;;;;;;;;;10202946;28;19932;-76
2024/03/18 00:31:58;;;;;;;2.23;0.93;;;;;;;;;;10203971;28;20044;-75
2024/03/18 00:37:00;;;;;;;4.30;1.45;;;;;;;;;;10201469;28;20047;-77
2024/03/18 00:42:03;;;;;;;2.90;1.10;;;;;;;;;;10201752;28;20039;-77
2024/03/18 00:47:05;;;;;;;2.13;1.00;;;;;;;;;;10202011;28;20550;-76
2024/03/18 00:52:07;;;;;;;4.63;1.33;;;;;;;;;;10202842;28;20465;-77
2024/03/18 00:57:12;;;;;;;3.45;1.33;;;;;;;;;;10197920;28;20339;-77
2024/03/18 01:02:14;;;;;;;1.13;0.95;;;;;;;;;;10193890;28;20062;-75
2024/03/18 01:07:16;;;;;;;1.48;0.90;;;;;;;;;;10184189;28;20066;-77
2024/03/18 01:12:20;;;;;;;1.35;0.80;;;;;;;;;;10199011;28;20058;-77
2024/03/18 01:17:22;;;;;;;2.78;1.10;;;;;;;;;;10200445;28;20039;-77
2024/03/18 01:22:25;;;;;;;1.42;0.80;;;;;;;;;;10201866;28;20501;-77
2024/03/18 01:27:28;;;;;;;1.20;0.80;;;;;;;;;;10197321;28;20047;-76
2024/03/18 01:32:30;;;;;;;2.47;1.10;;;;;;;;;;10195641;28;20456;-76
2024/03/18 01:37:32;;;;;;;2.35;1.10;;;;;;;;;;10196291;28;20424;-77
2024/03/18 01:42:35;;;;;;;1.85;0.98;;;;;;;;;;10192187;28;20078;-76
2024/03/18 01:47:39;;;;;;;1.55;1.10;;;;;;;;;;10196759;28;20039;-75
2024/03/18 01:52:42;;;;;;;2.30;0.88;;;;;;;;;;10196337;28;20094;-76
2024/03/18 01:57:47;;;;;;;2.72;0.90;;;;;;;;;;10203029;28;20047;-76
2024/03/18 02:02:49;;;;;;;1.92;0.77;;;;;;;;;;10222555;28;20614;-74
2024/03/18 02:07:52;;;;;;;1.43;0.83;;;;;;;;;;10192423;28;20138;-76
2024/03/18 02:13:00;;;;;;;1.50;0.70;;;;;;;;;;10193084;28;20044;-75
2024/03/18 02:18:04;;;;;;;2.47;0.93;;;;;;;;;;10195288;28;20047;-76
2024/03/18 02:23:26;;;;;;;1.63;1.02;;;;;;;;;;10193156;28;20039;-76
2024/03/18 02:28:30;;;;;;;1.80;0.80;;;;;;;;;;10188233;28;20134;-76
2024/03/18 02:33:32;;;;;;;2.10;0.50;;;;;;;;;;10193309;28;20361;-76
2024/03/18 02:38:34;;;;;;;2.25;1.10;;;;;;;;;;10194017;28;20050;-78
2024/03/18 02:43:37;;;;;;;1.25;0.50;;;;;;;;;;10192216;28;20074;-76
2024/03/18 02:48:38;;;;;;;1.37;0.93;;;;;;;;;;10198586;28;21798;-76
2024/03/18 02:53:41;;;;;;;0.63;0.57;;;;;;;;;;10197665;28;20059;-76
2024/03/18 02:58:45;;;;;;;2.47;0.80;;;;;;;;;;10202353;28;20044;-76
2024/03/18 03:03:48;;;;;;;3.25;0.98;;;;;;;;;;10198067;28;20056;-75
2024/03/18 03:08:50;;;;;;;0.73;0.70;;;;;;;;;;10201770;28;20106;-78
2024/03/18 03:13:54;;;;;;;2.15;1.10;;;;;;;;;;10213043;28;20654;-77
2024/03/18 03:18:55;;;;;;;2.77;1.00;;;;;;;;;;10189205;28;20408;-77
2024/03/18 03:23:58;;;;;;;1.40;0.47;;;;;;;;;;10202017;28;20039;-77
2024/03/18 03:29:03;;;;;;;1.15;0.73;;;;;;;;;;10182221;28;20039;-75
2024/03/18 03:34:05;;;;;;;2.65;0.77;;;;;;;;;;10195575;28;20126;-77
2024/03/18 03:39:11;;;;;;;0.63;0.52;;;;;;;;;;10199317;28;20043;-76
2024/03/18 03:44:15;;;;;;;2.53;0.82;;;;;;;;;;10181287;28;20039;-77
2024/03/18 03:49:17;;;;;;;2.53;1.02;;;;;;;;;;10183412;28;20050;-76
2024/03/18 03:54:20;;;;;;;3.13;0.82;;;;;;;;;;10196317;28;20412;-75
2024/03/18 03:59:23;;;;;;;0.70;0.55;;;;;;;;;;10208758;28;20054;-74
2024/03/18 04:04:26;;;;;;;1.20;0.80;;;;;;;;;;10198819;28;20401;-76
2024/03/18 04:09:28;;;;;;;0.60;0.30;;;;;;;;;;10196872;28;20047;-74
2024/03/18 04:14:32;;;;;;;2.25;0.60;;;;;;;;;;10200083;28;20066;-77
2024/03/18 04:19:33;;;;;;;0.68;0.40;;;;;;;;;;10196205;28;20043;-78
2024/03/18 04:24:36;;;;;;;2.17;0.77;;;;;;;;;;10195319;28;20500;-76
2024/03/18 04:29:40;;;;;;;0.93;0.60;;;;;;;;;;10196426;28;20508;-76
2024/03/18 04:34:42;;;;;;;1.08;0.65;;;;;;;;;;10179843;28;20043;-74
2024/03/18 04:39:43;;;;;;;2.00;0.65;;;;;;;;;;10192655;28;20070;-75
2024/03/18 04:44:48;;;;;;;0.70;0.50;;;;;;;;;;10191902;29;20043;-75
2024/03/18 04:49:50;;;;;;;1.52;0.75;;;;;;;;;;10180397;28;20050;-75
2024/03/18 04:54:52;;;;;;;0.93;0.60;;;;;;;;;;10187067;28;20047;-76
2024/03/18 04:59:57;;;;;;;1.25;0.82;;;;;;;;;;10196297;28;20405;-76
2024/03/18 05:05:01;;;;;;;1.35;0.60;;;;;;;;;;10202327;28;20523;-77
2024/03/18 05:10:03;;;;;;;;;;;;;;;;;;10189517;28;20055;-75
2024/03/18 05:15:07;;;;;;;1.35;0.68;;;;;;;;;;10189785;28;20299;-75
2024/03/18 05:20:12;;;;;;;0.95;0.60;;;;;;;;;;10175312;28;22196;-75
2024/03/18 05:25:15;;;;;;;1.73;0.68;;;;;;;;;;10193285;28;20485;-74
2024/03/18 05:30:19;;;;;;;1.15;0.60;;;;;;;;;;10191561;28;20546;-74
2024/03/18 05:35:21;;;;;;;1.30;0.47;;;;;;;;;;10193841;28;20396;-75
2024/03/18 05:40:23;;;;;;;1.70;0.77;;;;;;;;;;10193648;28;20047;-74
2024/03/18 05:45:27;;;;;;;1.20;0.65;;;;;;;;;;10178956;28;20055;-74
2024/03/18 05:50:29;;;;;;;;;;;;;;;;;;10188145;29;20107;-76
2024/03/18 05:55:31;;;;;;;1.70;0.80;;;;;;;;;;10195882;28;19927;-75
2024/03/18 06:00:39;;;;;;;3.00;1.15;;;;;;;;;;10195537;28;20047;-75
2024/03/18 06:05:42;;;;;;;3.05;1.08;;;;;;;;;;10189453;28;20054;-74
2024/03/18 06:10:44;;;;;;;1.08;0.55;;;;;;;;;;10192382;28;20047;-75
2024/03/18 06:15:47;;;;;;;2.40;1.20;;;;;;;;;;10191366;28;20411;-73
2024/03/18 06:20:54;;;;;;;5.25;0.93;;;;;;;;;;10185487;28;20530;-76
2024/03/18 06:25:58;;;;;;;1.55;0.70;;;;;;;;;;10185197;29;20054;-76
2024/03/18 06:31:01;;;;;;;0.93;0.60;;;;;;;;;;10196318;28;20050;-76
2024/03/18 06:36:09;;;;;;;2.05;0.90;;;;;;;;;;10182339;28;20070;-74
2024/03/18 06:41:11;;;;;;;2.05;0.80;;;;;;;;;;10196992;28;20551;-75
2024/03/18 06:46:17;;;;;;;2.47;1.05;;;;;;;;;;10198347;28;20469;-74
2024/03/18 06:51:22;;;;;;;4.43;1.00;;;;;;;;;;10198995;28;20036;-75
2024/03/18 06:56:24;;;;;;;2.70;1.00;;;;;;;;;;10175649;28;20047;-76
2024/03/18 07:01:29;;;;;;;3.15;1.00;;;;;;;;;;10179454;28;20043;-76
2024/03/18 07:06:32;;;;;;;4.60;1.00;;;;;;;;;;10189371;28;20088;-75
2024/03/18 07:11:34;;;;;;;4.13;1.27;;;;;;;;;;10174730;28;20051;-76
2024/03/18 07:16:38;;;;;;;1.60;1.15;;;;;;;;;;10178584;28;20047;-76
2024/03/18 07:21:40;;;;;;;3.47;1.10;;;;;;;;;;10194264;28;20608;-77
2024/03/18 07:26:43;;;;;;;5.90;1.05;;;;;;;;;;10195022;28;20056;-74
2024/03/18 07:31:47;;;;;;;3.75;1.25;;;;;;;;;;10192780;28;20198;-76
2024/03/18 07:36:48;;;;;;;;;;;;;;;;;;10192239;28;20118;-75
2024/03/18 07:41:50;;;;;;;2.67;1.10;;;;;;;;;;10194339;28;19934;-75
2024/03/18 07:46:54;;;;;;;2.25;0.98;;;;;;;;;;10189655;28;20511;-76
2024/03/18 07:51:56;;;;;;;1.20;0.80;;;;;;;;;;10182946;28;20048;-76
2024/03/18 07:56:58;;;;;;;4.07;0.90;;;;;;;;;;10173250;28;20039;-76
2024/03/18 08:02:02;;;;;;;5.05;1.02;;;;;;;;;;10195202;28;20048;-76
2024/03/18 08:07:05;;;;;;;1.80;1.00;;;;;;;;;;10193801;28;20047;-76
2024/03/18 08:12:08;;;;;;;2.83;1.25;;;;;;;;;;10195988;28;20369;-77
2024/03/18 08:17:11;;;;;;;4.80;1.20;;;;;;;;;;10179601;28;20609;-77
2024/03/18 08:22:16;;;;;;;3.83;1.48;;;;;;;;;;10192236;28;22660;-77
2024/03/18 08:27:19;;;;;;;2.30;1.00;;;;;;;;;;10192064;28;20426;-76
2024/03/18 08:32:22;;;;;;;1.35;0.80;;;;;;;;;;10193032;28;20601;-76
2024/03/18 08:37:24;;;;;;;0.93;0.80;;;;;;;;;;10191913;28;20592;-76
2024/03/18 08:42:27;;;;;;;2.40;0.90;;;;;;;;;;10173343;28;20051;-76
2024/03/18 08:47:30;;;;;;;0.93;0.65;;;;;;;;;;10173138;28;20059;-76
2024/03/18 08:52:32;;;;;;;1.50;0.80;;;;;;;;;;10194161;28;20446;-74
2024/03/18 08:57:34;;;;;;;1.73;0.80;;;;;;;;;;10186429;28;20420;-75
2024/03/18 09:02:38;;;;;;;2.67;0.82;;;;;;;;;;10189024;28;20412;-75
2024/03/18 09:07:40;;;;;;;;;;;;;;;;;;10188486;28;20122;-75
2024/03/18 09:12:43;;;;;;;4.05;0.90;;;;;;;;;;10190044;28;19927;-76
2024/03/18 09:17:47;;;;;;;1.60;0.77;;;;;;;;;;10175055;28;20416;-75
2024/03/18 09:22:53;;;;;;;1.85;0.93;;;;;;;;;;10203105;28;20035;-76
2024/03/18 09:27:56;;;;;;;5.30;1.88;;;;;;;;;;10181853;28;20515;-75
2024/03/18 09:33:01;;;;;;;1.42;0.80;;;;;;;;;;10185483;28;20081;-74
2024/03/18 09:38:03;;;;;;;2.90;1.17;;;;;;;;;;10174992;28;20583;-76
2024/03/18 09:43:06;;;;;;;3.25;1.27;;;;;;;;;;10173653;28;20520;-76
2024/03/18 09:48:15;;;;;;;5.55;1.20;;;;;;;;;;10199029;28;20047;-75
2024/03/18 09:53:17;;;;;;;2.67;1.27;;;;;;;;;;10187978;28;20046;-76
2024/03/18 09:58:23;;;;;;;6.03;1.13;;;;;;;;;;10197527;28;20098;-76
2024/03/18 10:03:30;;;;;;;4.22;1.20;;;;;;;;;;10192817;28;20043;-76
2024/03/18 10:08:33;;;;;;;1.85;1.20;;;;;;;;;;10192528;28;20510;-75
2024/03/18 10:13:35;;;;;;;2.45;1.20;;;;;;;;;;10192017;28;20473;-75
2024/03/18 10:18:41;;;;;;;3.35;1.10;;;;;;;;;;10178927;28;20043;-76
2024/03/18 10:23:53;;;;;;;2.53;1.40;;;;;;;;;;10199055;28;20055;-75
2024/03/18 10:28:56;;;;;;;3.97;0.90;;;;;;;;;;10194834;28;20126;-76
2024/03/18 10:34:00;;;;;;;1.40;0.55;;;;;;;;;;10186193;28;20035;-77
2024/03/18 10:39:07;;;;;;;2.15;0.80;;;;;;;;;;10189824;28;20457;-76
2024/03/18 10:44:14;;;;;;;1.70;0.88;;;;;;;;;;10192001;28;20531;-76
2024/03/18 10:49:17;;;;;;;2.28;0.73;;;;;;;;;;10195872;28;20047;-77
2024/03/18 10:54:19;;;;;;;2.30;1.10;;;;;;;;;;10198377;28;20397;-76
2024/03/18 10:59:23;;;;;;;4.43;1.10;;;;;;;;;;10207615;28;20098;-77
2024/03/18 11:04:28;;;;;;;6.88;1.70;;;;;;;;;;10193212;28;20602;-77
2024/03/18 11:09:30;;;;;;;2.42;1.10;;;;;;;;;;10179497;28;20384;-77
2024/03/18 11:14:32;;;;;;;6.25;1.80;;;;;;;;;;10195268;28;20051;-76
2024/03/18 11:19:39;;;;;;;2.30;1.30;;;;;;;;;;10197827;28;20039;-76
2024/03/18 11:24:42;;;;;;;5.50;1.35;;;;;;;;;;10194204;28;20085;-77
2024/03/18 11:29:49;;;;;;;4.68;1.15;;;;;;;;;;10195871;28;20055;-77
2024/03/18 11:34:58;;;;;;;5.35;1.10;;;;;;;;;;10180852;28;20039;-76
2024/03/18 11:40:00;;;;;;;3.60;1.08;;;;;;;;;;10194180;28;20048;-77
2024/03/18 11:45:01;;;;;;;1.50;1.15;;;;;;;;;;10193841;28;20047;-76
2024/03/18 11:50:05;;;;;;;4.13;1.20;;;;;;;;;;10190887;28;20169;-76
2024/03/18 11:55:07;;;;;;;3.53;1.00;;;;;;;;;;10189731;28;20047;-77
2024/03/18 12:00:11;;;;;;;3.00;1.30;;;;;;;;;;10203226;28;20055;-77
2024/03/18 12:05:14;;;;;;;6.28;1.90;;;;;;;;;;10190659;28;20133;-78
2024/03/18 12:10:19;;;;;;;3.60;1.40;;;;;;;;;;10176987;28;20044;-76
2024/03/18 12:15:22;;;;;;;5.53;1.20;;;;;;;;;;10192561;28;20471;-77
2024/03/18 12:20:26;;;;;;;2.43;1.10;;;;;;;;;;10182498;28;20051;-75
2024/03/18 12:30:55;;;;;;;3.33;1.80;;;;;;;;;;10195468;28;20123;-77
2024/03/18 12:36:03;;;;;;;3.17;1.40;;;;;;;;;;10197302;28;20055;-78
2024/03/18 12:41:06;;;;;;;3.67;1.70;;;;;;;;;;10180411;28;20051;-77
2024/03/18 12:46:08;;;;;;;3.33;1.58;;;;;;;;;;10190196;28;20712;-77
2024/03/18 12:51:13;;;;;;;5.90;2.00;;;;;;;;;;10196030;28;21013;-76
2024/03/18 12:56:19;;;;;;;5.65;2.13;;;;;;;;;;10190270;28;20074;-77
2024/03/18 13:01:22;;;;;;;6.50;2.30;;;;;;;;;;10159762;28;20047;-77
2024/03/18 13:06:26;;;;;;;5.30;2.20;;;;;;;;;;10188736;28;20044;-75
2024/03/18 13:11:29;;;;;;;6.20;2.50;;;;;;;;;;10190058;28;20051;-75
2024/03/18 13:16:31;;;;;;;5.28;2.83;;;;;;;;;;10195376;28;20071;-77
2024/03/18 13:21:37;;;;;;;6.53;2.80;;;;;;;;;;10192554;28;20043;-77
2024/03/18 13:26:40;;;;;;;8.13;3.08;;;;;;;;;;10192572;28;20481;-76
2024/03/18 13:31:43;;;;;;;10.95;3.40;;;;;;;;;;10196974;28;20039;-76
2024/03/18 13:36:48;;;;;;;7.05;3.15;;;;;;;;;;10175448;28;20055;-77
2024/03/18 13:41:50;;;;;;;6.45;3.40;;;;;;;;;;10194093;28;20489;-77
2024/03/18 13:46:52;;;;;;;8.80;3.28;;;;;;;;;;10180023;28;20051;-75
2024/03/18 13:51:57;;;;;;;10.00;3.40;;;;;;;;;;10193542;28;20055;-77
2024/03/18 13:57:03;;;;;;;8.70;3.70;;;;;;;;;;10183330;28;20109;-76
2024/03/18 14:02:06;;;;;;;7.65;3.83;;;;;;;;;;10173305;28;20066;-75
2024/03/18 14:07:17;;;;;;;8.05;3.47;;;;;;;;;;10190027;28;20082;-77
2024/03/18 14:12:20;;;;;;;7.43;3.45;;;;;;;;;;10172449;28;20047;-77
2024/03/18 14:17:22;;;;;;;7.22;3.20;;;;;;;;;;10186063;28;20043;-77
2024/03/18 14:22:28;;;;;;;7.45;3.63;;;;;;;;;;10185377;28;20445;-76
2024/03/18 14:27:30;;;;;;;6.70;3.38;;;;;;;;;;10186636;28;20463;-76
2024/03/18 14:32:33;;;;;;;7.30;3.20;;;;;;;;;;10191756;28;20094;-75
2024/03/18 14:37:36;;;;;;;7.55;3.65;;;;;;;;;;10190609;28;20047;-77
2024/03/18 14:42:39;;;;;;;9.25;3.90;;;;;;;;;;10194467;28;20051;-77
2024/03/18 14:47:41;;;;;;;8.57;4.25;;;;;;;;;;10193963;28;20057;-77
2024/03/18 14:52:45;;;;;;;13.02;4.40;;;;;;;;;;10185745;28;20043;-77
2024/03/18 14:57:48;;;;;;;8.57;3.50;;;;;;;;;;10197060;28;20127;-76
2024/03/18 15:02:50;;;;;;;6.47;3.30;;;;;;;;;;10191929;28;20058;-77
2024/03/18 15:07:54;;;;;;;5.30;2.70;;;;;;;;;;10192467;28;20158;-77
2024/03/18 15:12:56;;;;;;;13.95;4.00;;;;;;;;;;10193463;28;20035;-77
2024/03/18 15:17:58;;;;;;;10.95;3.83;;;;;;;;;;10199195;28;20105;-76
2024/03/18 15:23:09;;;;;;;7.25;3.10;;;;;;;;;;10189520;28;20103;-76
2024/03/18 15:28:12;;;;;;;4.53;2.58;;;;;;;;;;10176124;28;20090;-78
2024/03/18 15:33:14;;;;;;;6.00;2.15;;;;;;;;;;10192567;28;20292;-75
2024/03/18 15:38:18;;;;;;;6.50;2.70;;;;;;;;;;10192439;28;20099;-75
2024/03/18 15:43:21;;;;;;;10.60;2.55;;;;;;;;;;10192896;28;20055;-77
2024/03/18 15:48:25;;;;;;;4.53;2.30;;;;;;;;;;10190353;28;20067;-75
2024/03/18 15:53:31;;;;;;;6.03;1.85;;;;;;;;;;10196587;28;20736;-76
2024/03/18 15:58:35;;;;;;;9.52;3.13;;;;;;;;;;10188493;28;20043;-77
2024/03/18 16:03:41;;;;;;;6.20;3.10;;;;;;;;;;10195255;28;20517;-75
2024/03/18 16:08:45;;;;;;;5.07;2.85;;;;;;;;;;10191754;28;20066;-76
2024/03/18 16:13:48;;;;;;;9.27;2.42;;;;;;;;;;10188352;28;20039;-76
2024/03/18 16:18:50;;;;;;;5.28;2.85;;;;;;;;;;10192059;28;20074;-75
2024/03/18 16:23:53;;;;;;;7.38;2.75;;;;;;;;;;10191294;28;20122;-77
2024/03/18 16:28:56;;;;;;;4.45;2.20;;;;;;;;;;10187632;28;20508;-76
2024/03/18 16:33:58;;;;;;;6.03;3.30;;;;;;;;;;10168876;28;20040;-76
2024/03/18 16:39:01;;;;;;;4.32;2.50;;;;;;;;;;10196734;28;20412;-75
2024/03/18 16:44:04;;;;;;;4.15;2.63;;;;;;;;;;10193611;28;20091;-76
2024/03/18 16:49:06;;;;;;;5.55;2.10;;;;;;;;;;10178104;28;20535;-75
2024/03/18 16:54:09;;;;;;;7.63;3.22;;;;;;;;;;10163534;28;20050;-77
2024/03/18 16:59:10;;;;;;;6.60;3.07;;;;;;;;;;10191714;28;20504;-76
2024/03/18 17:04:18;;;;;;;6.35;2.42;;;;;;;;;;10192199;28;20043;-77
2024/03/18 17:09:25;;;;;;;2.00;0.93;;;;;;;;;;10178248;28;20108;-76
2024/03/18 17:14:27;;;;;;;2.45;1.70;;;;;;;;;;10191769;28;20043;-77
2024/03/18 17:19:30;;;;;;;2.38;1.80;;;;;;;;;;10188414;28;20335;-77
2024/03/18 17:24:34;;;;;;;4.95;1.95;;;;;;;;;;10192013;28;20047;-77
2024/03/18 17:29:35;;;;;;;2.72;1.50;;;;;;;;;;10191705;28;20454;-77
2024/03/18 17:34:37;;;;;;;2.00;1.50;;;;;;;;;;10190751;28;20047;-78
2024/03/18 17:39:41;;;;;;;3.13;1.55;;;;;;;;;;10185647;28;20043;-77
2024/03/18 17:44:43;;;;;;;4.50;1.90;;;;;;;;;;10190653;28;20036;-77
2024/03/18 17:49:45;;;;;;;3.78;1.90;;;;;;;;;;10196869;28;20035;-77
2024/03/18 17:54:52;;;;;;;3.90;1.92;;;;;;;;;;10190664;28;20047;-77
2024/03/18 17:59:53;;;;;;;2.45;1.20;;;;;;;;;;10181247;28;20357;-77
2024/03/18 18:04:57;;;;;;;0.95;0.55;;;;;;;;;;10190762;28;20556;-76
2024/03/18 18:10:00;;;;;;;2.50;1.10;;;;;;;;;;10191286;28;20047;-78
2024/03/18 18:15:02;;;;;;;1.40;1.05;;;;;;;;;;10188293;28;20129;-77
2024/03/18 18:20:05;;;;;;;1.55;0.80;;;;;;;;;;10182684;28;20040;-76
2024/03/18 18:25:09;;;;;;;1.77;1.07;;;;;;;;;;10197040;28;20047;-76
2024/03/18 18:30:11;;;;;;;;;;;;;;;;;;10195917;28;20556;-77
2024/03/18 18:35:15;;;;;;;2.55;1.13;;;;;;;;;;10193786;28;19932;-77
2024/03/18 18:40:18;;;;;;;3.65;0.98;;;;;;;;;;10190202;28;20457;-78
2024/03/18 18:45:21;;;;;;;1.88;0.90;;;;;;;;;;10196929;28;20047;-76
2024/03/18 18:50:24;;;;;;;0.73;0.67;;;;;;;;;;10200481;28;20066;-75
2024/03/18 18:55:29;;;;;;;2.67;0.88;;;;;;;;;;10182242;28;20074;-77
2024/03/18 19:00:31;;;;;;;1.90;0.70;;;;;;;;;;10193237;28;20057;-73
2024/03/18 19:05:35;;;;;;;2.17;1.20;;;;;;;;;;10180784;28;20052;-76
2024/03/18 19:10:38;;;;;;;1.13;0.60;;;;;;;;;;10175124;28;20088;-76
2024/03/18 19:15:46;;;;;;;1.35;0.98;;;;;;;;;;10197910;28;20038;-76
2024/03/18 19:20:51;;;;;;;1.17;0.73;;;;;;;;;;10195009;28;20044;-75
2024/03/18 19:25:56;;;;;;;0.80;0.60;;;;;;;;;;10193549;28;20047;-75
2024/03/18 19:30:58;;;;;;;;;;;;;;;;;;10193649;28;20111;-76
2024/03/18 19:36:00;;;;;;;2.15;1.15;;;;;;;;;;10196459;28;20037;-76
2024/03/18 19:41:04;;;;;;;3.92;0.90;;;;;;;;;;10194436;28;20399;-77
2024/03/18 19:46:06;;;;;;;1.88;1.33;;;;;;;;;;10198628;28;20417;-76
2024/03/18 19:51:09;;;;;;;2.72;1.38;;;;;;;;;;10189635;28;20048;-75
2024/03/18 19:56:14;;;;;;;2.37;1.30;;;;;;;;;;10193876;28;20472;-75
2024/03/18 20:01:17;;;;;;;1.55;1.00;;;;;;;;;;10193270;28;20051;-77
2024/03/18 20:06:19;;;;;;;2.33;0.60;;;;;;;;;;10194181;28;20044;-76
2024/03/18 20:11:22;;;;;;;2.35;0.65;;;;;;;;;;10204806;28;20110;-75
2024/03/18 20:16:25;;;;;;;0.90;0.30;;;;;;;;;;10193544;28;20393;-76
2024/03/18 20:21:27;;;;;;;0.57;0.47;;;;;;;;;;10190032;28;20504;-76
2024/03/18 20:26:32;;;;;;;0.90;0.43;;;;;;;;;;10186262;28;20095;-77
2024/03/18 20:31:34;;;;;;;1.55;0.77;;;;;;;;;;10192005;28;20047;-77
2024/03/18 20:36:36;;;;;;;1.38;0.80;;;;;;;;;;10191272;28;20084;-76
2024/03/18 20:41:41;;;;;;;2.83;0.43;;;;;;;;;;10191911;28;20050;-78
2024/03/18 20:46:49;;;;;;;1.85;0.90;;;;;;;;;;10192211;28;20058;-78
2024/03/18 20:51:51;;;;;;;1.63;0.60;;;;;;;;;;10198110;28;20071;-78
2024/03/18 20:56:55;;;;;;;1.42;0.85;;;;;;;;;;10194182;28;20062;-78
2024/03/18 21:01:57;;;;;;;1.07;0.80;;;;;;;;;;10203376;28;20051;-79
2024/03/18 21:07:00;;;;;;;1.42;1.00;;;;;;;;;;10190922;28;20325;-79
2024/03/18 21:12:04;;;;;;;1.90;0.70;;;;;;;;;;10194924;28;20047;-77
2024/03/18 21:17:06;;;;;;;1.02;0.90;;;;;;;;;;10190519;28;20103;-78
2024/03/18 21:22:08;;;;;;;2.85;0.75;;;;;;;;;;10188124;28;20036;-78
2024/03/18 21:27:16;;;;;;;1.45;0.80;;;;;;;;;;10186563;28;20050;-78
2024/03/18 21:32:18;;;;;;;1.95;0.75;;;;;;;;;;10188290;28;20055;-77
2024/03/18 21:37:19;;;;;;;10.02;1.02;;;;;;;;;;10174034;28;20043;-77
2024/03/18 21:42:22;;;;;;;3.03;1.20;;;;;;;;;;10187669;28;20042;-77
2024/03/18 21:47:24;;;;;;;2.45;1.00;;;;;;;;;;10193580;28;20133;-77
2024/03/18 21:52:27;;;;;;;0.95;0.85;;;;;;;;;;10192549;28;20484;-76
2024/03/18 21:57:31;;;;;;;2.63;1.30;;;;;;;;;;10190058;28;20460;-77
2024/03/18 22:02:33;;;;;;;2.50;1.50;;;;;;;;;;10189356;28;20170;-78
2024/03/18 22:07:35;;;;;;;1.80;1.08;;;;;;;;;;10171772;28;20481;-78
2024/03/18 22:12:40;;;;;;;1.95;1.33;;;;;;;;;;10188358;28;20048;-77
2024/03/18 22:17:42;;;;;;;1.75;1.02;;;;;;;;;;10188137;28;20043;-77
2024/03/18 22:22:44;;;;;;;2.67;1.40;;;;;;;;;;10189095;28;20730;-77
2024/03/18 22:27:48;;;;;;;1.85;1.40;;;;;;;;;;10185400;28;20047;-79
2024/03/18 22:32:50;;;;;;;4.22;1.77;;;;;;;;;;10192019;28;20044;-76
2024/03/18 22:37:52;;;;;;;5.82;2.80;;;;;;;;;;10190482;28;20047;-77
2024/03/18 22:42:55;;;;;;;6.13;3.10;;;;;;;;;;10190283;28;20114;-76
2024/03/18 22:48:00;;;;;;;8.32;3.75;;;;;;;;;;10188796;28;20054;-76
2024/03/18 22:53:03;;;;;;;8.77;3.92;;;;;;;;;;10187631;28;20131;-77
2024/03/18 22:58:14;;;;;;;7.45;3.70;;;;;;;;;;10183393;28;20134;-76
2024/03/18 23:03:19;;;;;;;4.53;2.55;;;;;;;;;;10192925;28;20031;-77
2024/03/18 23:08:31;;;;;;;8.35;4.43;;;;;;;;;;10193555;28;20054;-76
2024/03/18 23:13:35;;;;;;;7.57;4.22;;;;;;;;;;10192423;28;20035;-76
2024/03/18 23:18:37;;;;;;;9.23;4.07;;;;;;;;;;10196635;28;20038;-77
2024/03/18 23:23:39;;;;;;;10.60;4.80;;;;;;;;;;10195050;28;21882;-79
2024/03/18 23:28:46;;;;;;;7.40;3.67;;;;;;;;;;10199085;28;20046;-75
2024/03/18 23:33:48;;;;;;;8.80;4.03;;;;;;;;;;10198537;28;20047;-76
2024/03/18 23:38:51;;;;;;;8.30;3.60;;;;;;;;;;10198511;28;20078;-75
2024/03/18 23:43:55;;;;;;;10.63;4.70;;;;;;;;;;10192807;28;20040;-76
2024/03/18 23:48:56;;;;;;;10.75;5.07;;;;;;;;;;10189350;28;20146;-76
2024/03/18 23:53:58;;;;;;;7.57;3.30;;;;;;;;;;10191734;28;20043;-77
2024/03/18 23:59:02;;;;;;;12.30;5.70;;;;;;;;;;10193724;28;20051;-76
